sensor_id;sensor_type;location;lat;lon;timestamp;temperature;humidity
75899;DHT22;64576;50.460;4.866;2023-04-06T00:01:10;2.35;74.38
75899;DHT22;64576;50.460;4.866;2023-04-06T00:03:36;2.38;73.50
75899;DHT22;64576;50.460;4.866;2023-04-06T00:06:01;2.55;72.91
75899;DHT22;64576;50.460;4.866;2023-04-06T00:08:27;2.45;73.70
75899;DHT22;64576;50.460;4.866;2023-04-06T00:10:52;2.00;76.58
75899;DHT22;64576;50.460;4.866;2023-04-06T00:13:18;1.67;78.14
75899;DHT22;64576;50.460;4.866;2023-04-06T00:15:43;1.53;78.51
75899;DHT22;64576;50.460;4.866;2023-04-06T00:18:09;1.53;78.48
75899;DHT22;64576;50.460;4.866;2023-04-06T00:20:34;1.62;78.00
75899;DHT22;64576;50.460;4.866;2023-04-06T00:23:00;1.58;78.20
75899;DHT22;64576;50.460;4.866;2023-04-06T00:25:25;1.62;77.88
75899;DHT22;64576;50.460;4.866;2023-04-06T00:27:51;1.74;77.04
75899;DHT22;64576;50.460;4.866;2023-04-06T00:30:16;1.84;76.93
75899;DHT22;64576;50.460;4.866;2023-04-06T00:32:42;1.84;77.07
75899;DHT22;64576;50.460;4.866;2023-04-06T00:35:07;1.84;77.18
75899;DHT22;64576;50.460;4.866;2023-04-06T00:37:33;1.89;76.78
75899;DHT22;64576;50.460;4.866;2023-04-06T00:39:58;1.90;76.52
75899;DHT22;64576;50.460;4.866;2023-04-06T00:42:24;2.14;75.59
75899;DHT22;64576;50.460;4.866;2023-04-06T00:44:54;2.10;75.50
75899;DHT22;64576;50.460;4.866;2023-04-06T00:47:20;2.08;75.59
75899;DHT22;64576;50.460;4.866;2023-04-06T00:49:46;2.20;75.05
75899;DHT22;64576;50.460;4.866;2023-04-06T00:52:11;2.28;74.34
75899;DHT22;64576;50.460;4.866;2023-04-06T00:54:36;2.17;75.07
75899;DHT22;64576;50.460;4.866;2023-04-06T00:57:02;1.96;76.22
75899;DHT22;64576;50.460;4.866;2023-04-06T00:59:28;2.07;75.31
75899;DHT22;64576;50.460;4.866;2023-04-06T01:01:53;2.21;74.93
75899;DHT22;64576;50.460;4.866;2023-04-06T01:04:20;2.03;76.02
75899;DHT22;64576;50.460;4.866;2023-04-06T01:06:48;2.14;75.00
75899;DHT22;64576;50.460;4.866;2023-04-06T01:09:13;2.06;75.53
75899;DHT22;64576;50.460;4.866;2023-04-06T01:11:39;2.14;75.08
75899;DHT22;64576;50.460;4.866;2023-04-06T01:14:04;2.20;74.71
75899;DHT22;64576;50.460;4.866;2023-04-06T01:16:30;2.35;74.07
75899;DHT22;64576;50.460;4.866;2023-04-06T01:18:55;2.36;74.21
75899;DHT22;64576;50.460;4.866;2023-04-06T01:21:21;2.31;74.91
75899;DHT22;64576;50.460;4.866;2023-04-06T01:23:47;2.20;74.86
75899;DHT22;64576;50.460;4.866;2023-04-06T01:26:13;2.32;74.15
75899;DHT22;64576;50.460;4.866;2023-04-06T01:28:39;2.36;74.12
75899;DHT22;64576;50.460;4.866;2023-04-06T01:31:08;2.34;74.33
75899;DHT22;64576;50.460;4.866;2023-04-06T01:33:33;2.28;74.54
75899;DHT22;64576;50.460;4.866;2023-04-06T01:35:59;2.29;74.49
75899;DHT22;64576;50.460;4.866;2023-04-06T01:38:25;2.48;73.55
75899;DHT22;64576;50.460;4.866;2023-04-06T01:40:51;2.69;72.47
75899;DHT22;64576;50.460;4.866;2023-04-06T01:43:17;2.84;71.68
75899;DHT22;64576;50.460;4.866;2023-04-06T01:45:42;2.87;71.38
75899;DHT22;64576;50.460;4.866;2023-04-06T01:48:08;3.05;70.48
75899;DHT22;64576;50.460;4.866;2023-04-06T01:50:33;3.10;70.40
75899;DHT22;64576;50.460;4.866;2023-04-06T01:52:58;3.08;70.40
75899;DHT22;64576;50.460;4.866;2023-04-06T01:55:24;2.99;70.80
75899;DHT22;64576;50.460;4.866;2023-04-06T01:57:49;2.99;70.92
75899;DHT22;64576;50.460;4.866;2023-04-06T02:00:15;2.89;71.78
75899;DHT22;64576;50.460;4.866;2023-04-06T02:02:41;2.72;72.72
75899;DHT22;64576;50.460;4.866;2023-04-06T02:05:07;2.55;74.38
75899;DHT22;64576;50.460;4.866;2023-04-06T02:07:33;2.31;76.02
75899;DHT22;64576;50.460;4.866;2023-04-06T02:09:59;2.25;75.88
75899;DHT22;64576;50.460;4.866;2023-04-06T02:12:24;2.22;76.34
75899;DHT22;64576;50.460;4.866;2023-04-06T02:14:50;2.22;76.07
75899;DHT22;64576;50.460;4.866;2023-04-06T02:17:15;2.29;75.69
75899;DHT22;64576;50.460;4.866;2023-04-06T02:19:41;2.41;74.72
75899;DHT22;64576;50.460;4.866;2023-04-06T02:22:06;2.45;74.74
75899;DHT22;64576;50.460;4.866;2023-04-06T02:24:31;2.41;75.12
75899;DHT22;64576;50.460;4.866;2023-04-06T02:26:57;2.48;74.80
75899;DHT22;64576;50.460;4.866;2023-04-06T02:29:23;2.60;73.60
75899;DHT22;64576;50.460;4.866;2023-04-06T02:31:48;2.73;73.11
75899;DHT22;64576;50.460;4.866;2023-04-06T02:34:14;2.80;72.47
75899;DHT22;64576;50.460;4.866;2023-04-06T02:36:46;2.93;72.12
75899;DHT22;64576;50.460;4.866;2023-04-06T02:39:12;3.04;70.98
75899;DHT22;64576;50.460;4.866;2023-04-06T02:41:38;3.18;70.41
75899;DHT22;64576;50.460;4.866;2023-04-06T02:44:05;3.11;70.70
75899;DHT22;64576;50.460;4.866;2023-04-06T02:46:31;3.04;71.33
75899;DHT22;64576;50.460;4.866;2023-04-06T02:48:56;3.08;70.87
75899;DHT22;64576;50.460;4.866;2023-04-06T02:51:21;3.04;71.40
75899;DHT22;64576;50.460;4.866;2023-04-06T02:53:47;3.08;70.72
75899;DHT22;64576;50.460;4.866;2023-04-06T02:56:12;3.14;70.60
75899;DHT22;64576;50.460;4.866;2023-04-06T02:58:38;3.05;71.07
75899;DHT22;64576;50.460;4.866;2023-04-06T03:01:03;3.08;71.02
75899;DHT22;64576;50.460;4.866;2023-04-06T03:03:29;3.05;70.97
75899;DHT22;64576;50.460;4.866;2023-04-06T03:05:55;3.05;71.02
75899;DHT22;64576;50.460;4.866;2023-04-06T03:08:23;3.07;70.77
75899;DHT22;64576;50.460;4.866;2023-04-06T03:10:49;3.03;71.20
75899;DHT22;64576;50.460;4.866;2023-04-06T03:13:14;2.94;71.99
75899;DHT22;64576;50.460;4.866;2023-04-06T03:15:40;2.86;72.82
75899;DHT22;64576;50.460;4.866;2023-04-06T03:18:05;2.82;73.05
75899;DHT22;64576;50.460;4.866;2023-04-06T03:20:31;2.93;71.96
75899;DHT22;64576;50.460;4.866;2023-04-06T03:22:56;2.97;71.80
75899;DHT22;64576;50.460;4.866;2023-04-06T03:25:21;2.99;71.75
75899;DHT22;64576;50.460;4.866;2023-04-06T03:27:47;3.00;71.21
75899;DHT22;64576;50.460;4.866;2023-04-06T03:30:12;3.00;71.32
75899;DHT22;64576;50.460;4.866;2023-04-06T03:32:38;2.96;71.82
75899;DHT22;64576;50.460;4.866;2023-04-06T03:35:04;2.93;72.07
75899;DHT22;64576;50.460;4.866;2023-04-06T03:37:29;2.94;71.92
75899;DHT22;64576;50.460;4.866;2023-04-06T03:39:55;2.90;72.38
75899;DHT22;64576;50.460;4.866;2023-04-06T03:42:20;2.83;72.59
75899;DHT22;64576;50.460;4.866;2023-04-06T03:44:46;2.84;72.34
75899;DHT22;64576;50.460;4.866;2023-04-06T03:47:11;2.84;72.22
75899;DHT22;64576;50.460;4.866;2023-04-06T03:49:36;2.80;72.28
75899;DHT22;64576;50.460;4.866;2023-04-06T03:52:02;2.73;72.52
75899;DHT22;64576;50.460;4.866;2023-04-06T03:54:28;2.75;72.67
75899;DHT22;64576;50.460;4.866;2023-04-06T03:56:53;2.69;72.94
75899;DHT22;64576;50.460;4.866;2023-04-06T03:59:18;2.65;73.43
75899;DHT22;64576;50.460;4.866;2023-04-06T04:01:44;2.71;73.38
75899;DHT22;64576;50.460;4.866;2023-04-06T04:04:10;2.83;73.00
75899;DHT22;64576;50.460;4.866;2023-04-06T04:06:35;2.77;73.45
75899;DHT22;64576;50.460;4.866;2023-04-06T04:09:02;2.76;73.41
75899;DHT22;64576;50.460;4.866;2023-04-06T04:11:28;2.76;73.64
75899;DHT22;64576;50.460;4.866;2023-04-06T04:13:53;2.76;73.50
75899;DHT22;64576;50.460;4.866;2023-04-06T04:16:19;2.82;73.20
75899;DHT22;64576;50.460;4.866;2023-04-06T04:18:44;2.80;72.95
75899;DHT22;64576;50.460;4.866;2023-04-06T04:21:12;2.83;73.18
75899;DHT22;64576;50.460;4.866;2023-04-06T04:23:37;2.92;72.75
75899;DHT22;64576;50.460;4.866;2023-04-06T04:26:03;2.94;72.81
75899;DHT22;64576;50.460;4.866;2023-04-06T04:28:28;2.94;72.93
75899;DHT22;64576;50.460;4.866;2023-04-06T04:30:53;2.89;73.51
75899;DHT22;64576;50.460;4.866;2023-04-06T04:33:19;2.82;73.90
75899;DHT22;64576;50.460;4.866;2023-04-06T04:35:45;2.83;73.71
75899;DHT22;64576;50.460;4.866;2023-04-06T04:38:10;2.79;73.74
75899;DHT22;64576;50.460;4.866;2023-04-06T04:40:35;2.80;73.49
75899;DHT22;64576;50.460;4.866;2023-04-06T04:43:01;2.76;74.08
75899;DHT22;64576;50.460;4.866;2023-04-06T04:45:26;2.76;74.25
75899;DHT22;64576;50.460;4.866;2023-04-06T04:47:51;2.67;74.90
75899;DHT22;64576;50.460;4.866;2023-04-06T04:50:17;2.67;74.89
75899;DHT22;64576;50.460;4.866;2023-04-06T04:52:42;2.66;75.42
75899;DHT22;64576;50.460;4.866;2023-04-06T04:55:08;2.66;75.59
75899;DHT22;64576;50.460;4.866;2023-04-06T04:57:33;2.71;74.77
75899;DHT22;64576;50.460;4.866;2023-04-06T04:59:59;2.93;73.55
75899;DHT22;64576;50.460;4.866;2023-04-06T05:02:24;3.05;72.88
75899;DHT22;64576;50.460;4.866;2023-04-06T05:04:49;3.11;72.72
75899;DHT22;64576;50.460;4.866;2023-04-06T05:07:15;3.17;72.46
75899;DHT22;64576;50.460;4.866;2023-04-06T05:09:43;3.25;71.99
75899;DHT22;64576;50.460;4.866;2023-04-06T05:12:09;3.31;71.82
75899;DHT22;64576;50.460;4.866;2023-04-06T05:14:34;3.41;71.51
75899;DHT22;64576;50.460;4.866;2023-04-06T05:17:00;3.39;71.77
75899;DHT22;64576;50.460;4.866;2023-04-06T05:19:25;3.35;71.89
75899;DHT22;64576;50.460;4.866;2023-04-06T05:21:51;3.25;72.60
75899;DHT22;64576;50.460;4.866;2023-04-06T05:24:16;3.21;72.62
75899;DHT22;64576;50.460;4.866;2023-04-06T05:26:41;3.12;73.61
75899;DHT22;64576;50.460;4.866;2023-04-06T05:29:07;3.07;75.36
75899;DHT22;64576;50.460;4.866;2023-04-06T05:31:32;2.97;76.01
75899;DHT22;64576;50.460;4.866;2023-04-06T05:33:58;3.03;74.89
75899;DHT22;64576;50.460;4.866;2023-04-06T05:36:23;3.05;75.63
75899;DHT22;64576;50.460;4.866;2023-04-06T05:38:48;3.12;75.63
75899;DHT22;64576;50.460;4.866;2023-04-06T05:41:15;3.17;74.73
75899;DHT22;64576;50.460;4.866;2023-04-06T05:43:41;3.34;73.02
75899;DHT22;64576;50.460;4.866;2023-04-06T05:46:07;3.46;72.64
75899;DHT22;64576;50.460;4.866;2023-04-06T05:48:32;3.60;71.88
75899;DHT22;64576;50.460;4.866;2023-04-06T05:50:58;3.72;71.34
75899;DHT22;64576;50.460;4.866;2023-04-06T05:53:23;3.82;71.22
75899;DHT22;64576;50.460;4.866;2023-04-06T05:55:51;3.98;70.44
75899;DHT22;64576;50.460;4.866;2023-04-06T05:58:16;4.10;70.22
75899;DHT22;64576;50.460;4.866;2023-04-06T06:00:42;4.24;69.80
75899;DHT22;64576;50.460;4.866;2023-04-06T06:03:08;4.31;69.77
75899;DHT22;64576;50.460;4.866;2023-04-06T06:05:34;4.40;69.39
75899;DHT22;64576;50.460;4.866;2023-04-06T06:07:59;4.45;69.21
75899;DHT22;64576;50.460;4.866;2023-04-06T06:10:27;4.52;69.02
75899;DHT22;64576;50.460;4.866;2023-04-06T06:12:53;4.53;68.92
75899;DHT22;64576;50.460;4.866;2023-04-06T06:15:18;4.56;69.42
75899;DHT22;64576;50.460;4.866;2023-04-06T06:17:44;4.55;69.75
75899;DHT22;64576;50.460;4.866;2023-04-06T06:20:09;4.56;70.45
75899;DHT22;64576;50.460;4.866;2023-04-06T06:22:35;4.61;69.94
75899;DHT22;64576;50.460;4.866;2023-04-06T06:25:00;4.70;70.06
75899;DHT22;64576;50.460;4.866;2023-04-06T06:27:25;4.76;70.26
75899;DHT22;64576;50.460;4.866;2023-04-06T06:29:51;4.81;69.79
75899;DHT22;64576;50.460;4.866;2023-04-06T06:32:17;4.83;69.81
75899;DHT22;64576;50.460;4.866;2023-04-06T06:34:43;4.87;69.75
75899;DHT22;64576;50.460;4.866;2023-04-06T06:37:08;4.93;70.56
75899;DHT22;64576;50.460;4.866;2023-04-06T06:39:34;4.83;70.63
75899;DHT22;64576;50.460;4.866;2023-04-06T06:41:59;4.77;70.73
75899;DHT22;64576;50.460;4.866;2023-04-06T06:44:28;4.80;71.40
75899;DHT22;64576;50.460;4.866;2023-04-06T06:46:53;4.73;71.21
75899;DHT22;64576;50.460;4.866;2023-04-06T06:49:19;4.72;71.33
75899;DHT22;64576;50.460;4.866;2023-04-06T06:51:45;4.70;71.98
75899;DHT22;64576;50.460;4.866;2023-04-06T06:54:12;4.73;71.92
75899;DHT22;64576;50.460;4.866;2023-04-06T06:56:37;4.75;72.26
75899;DHT22;64576;50.460;4.866;2023-04-06T06:59:03;4.72;72.52
75899;DHT22;64576;50.460;4.866;2023-04-06T07:01:36;4.69;72.74
75899;DHT22;64576;50.460;4.866;2023-04-06T07:04:01;4.69;73.09
75899;DHT22;64576;50.460;4.866;2023-04-06T07:06:27;4.70;72.85
75899;DHT22;64576;50.460;4.866;2023-04-06T07:08:52;4.86;72.39
75899;DHT22;64576;50.460;4.866;2023-04-06T07:11:17;4.93;71.80
75899;DHT22;64576;50.460;4.866;2023-04-06T07:13:43;5.10;71.47
75899;DHT22;64576;50.460;4.866;2023-04-06T07:16:08;5.23;71.38
75899;DHT22;64576;50.460;4.866;2023-04-06T07:18:34;5.45;70.63
75899;DHT22;64576;50.460;4.866;2023-04-06T07:20:59;5.60;69.92
75899;DHT22;64576;50.460;4.866;2023-04-06T07:23:25;5.67;70.48
75899;DHT22;64576;50.460;4.866;2023-04-06T07:25:50;5.77;70.34
75899;DHT22;64576;50.460;4.866;2023-04-06T07:28:19;5.87;70.05
75899;DHT22;64576;50.460;4.866;2023-04-06T07:30:49;5.92;69.87
75899;DHT22;64576;50.460;4.866;2023-04-06T07:33:15;5.89;69.99
75899;DHT22;64576;50.460;4.866;2023-04-06T07:35:47;5.82;70.08
75899;DHT22;64576;50.460;4.866;2023-04-06T07:38:12;5.92;70.47
75899;DHT22;64576;50.460;4.866;2023-04-06T07:40:38;5.87;70.33
75899;DHT22;64576;50.460;4.866;2023-04-06T07:43:03;5.90;70.73
75899;DHT22;64576;50.460;4.866;2023-04-06T07:45:29;5.79;70.53
75899;DHT22;64576;50.460;4.866;2023-04-06T07:47:55;5.79;70.91
75899;DHT22;64576;50.460;4.866;2023-04-06T07:50:20;5.85;71.10
75899;DHT22;64576;50.460;4.866;2023-04-06T07:52:46;5.97;70.62
75899;DHT22;64576;50.460;4.866;2023-04-06T07:55:11;6.06;70.86
75899;DHT22;64576;50.460;4.866;2023-04-06T07:57:37;6.16;70.80
75899;DHT22;64576;50.460;4.866;2023-04-06T08:00:03;6.20;72.44
75899;DHT22;64576;50.460;4.866;2023-04-06T08:02:30;6.39;72.98
75899;DHT22;64576;50.460;4.866;2023-04-06T08:04:56;6.28;72.82
75899;DHT22;64576;50.460;4.866;2023-04-06T08:07:21;6.22;74.82
75899;DHT22;64576;50.460;4.866;2023-04-06T08:09:47;6.10;74.41
75899;DHT22;64576;50.460;4.866;2023-04-06T08:12:12;5.96;75.68
75899;DHT22;64576;50.460;4.866;2023-04-06T08:14:38;5.82;76.47
75899;DHT22;64576;50.460;4.866;2023-04-06T08:17:03;5.86;76.74
75899;DHT22;64576;50.460;4.866;2023-04-06T08:19:28;5.76;77.54
75899;DHT22;64576;50.460;4.866;2023-04-06T08:21:54;5.80;78.28
75899;DHT22;64576;50.460;4.866;2023-04-06T08:24:19;5.85;78.79
75899;DHT22;64576;50.460;4.866;2023-04-06T08:26:45;5.80;78.71
75899;DHT22;64576;50.460;4.866;2023-04-06T08:29:10;5.82;79.35
75899;DHT22;64576;50.460;4.866;2023-04-06T08:31:36;5.86;80.28
75899;DHT22;64576;50.460;4.866;2023-04-06T08:34:03;5.90;80.51
75899;DHT22;64576;50.460;4.866;2023-04-06T08:36:29;5.89;80.20
75899;DHT22;64576;50.460;4.866;2023-04-06T08:38:54;5.93;80.42
75899;DHT22;64576;50.460;4.866;2023-04-06T08:41:20;6.01;80.93
75899;DHT22;64576;50.460;4.866;2023-04-06T08:43:57;6.21;81.29
75899;DHT22;64576;50.460;4.866;2023-04-06T08:46:24;6.27;80.62
75899;DHT22;64576;50.460;4.866;2023-04-06T08:48:59;6.42;81.04
75899;DHT22;64576;50.460;4.866;2023-04-06T08:51:25;6.38;81.15
75899;DHT22;64576;50.460;4.866;2023-04-06T08:53:56;6.34;81.80
75899;DHT22;64576;50.460;4.866;2023-04-06T08:56:26;6.34;81.97
75899;DHT22;64576;50.460;4.866;2023-04-06T08:58:52;6.24;82.22
75899;DHT22;64576;50.460;4.866;2023-04-06T09:01:21;6.27;82.45
75899;DHT22;64576;50.460;4.866;2023-04-06T09:03:48;6.35;83.34
75899;DHT22;64576;50.460;4.866;2023-04-06T09:06:14;6.34;82.54
75899;DHT22;64576;50.460;4.866;2023-04-06T09:08:40;6.30;83.87
75899;DHT22;64576;50.460;4.866;2023-04-06T09:11:07;6.22;84.18
75899;DHT22;64576;50.460;4.866;2023-04-06T09:13:53;6.37;85.41
75899;DHT22;64576;50.460;4.866;2023-04-06T09:16:20;6.30;86.09
75899;DHT22;64576;50.460;4.866;2023-04-06T09:18:49;6.38;85.51
75899;DHT22;64576;50.460;4.866;2023-04-06T09:21:18;6.44;85.01
75899;DHT22;64576;50.460;4.866;2023-04-06T09:23:44;6.49;85.11
75899;DHT22;64576;50.460;4.866;2023-04-06T09:26:17;6.53;85.26
75899;DHT22;64576;50.460;4.866;2023-04-06T09:28:53;6.62;85.10
75899;DHT22;64576;50.460;4.866;2023-04-06T09:31:29;6.76;85.98
75899;DHT22;64576;50.460;4.866;2023-04-06T09:33:56;6.80;84.78
75899;DHT22;64576;50.460;4.866;2023-04-06T09:36:36;6.86;84.65
75899;DHT22;64576;50.460;4.866;2023-04-06T09:39:06;7.01;84.46
75899;DHT22;64576;50.460;4.866;2023-04-06T09:41:34;6.94;84.05
75899;DHT22;64576;50.460;4.866;2023-04-06T09:44:08;6.94;85.23
75899;DHT22;64576;50.460;4.866;2023-04-06T09:46:42;7.07;84.71
75899;DHT22;64576;50.460;4.866;2023-04-06T09:49:08;7.01;84.32
75899;DHT22;64576;50.460;4.866;2023-04-06T09:51:38;7.00;84.07
75899;DHT22;64576;50.460;4.866;2023-04-06T09:54:07;7.04;85.08
75899;DHT22;64576;50.460;4.866;2023-04-06T09:56:54;7.04;84.73
75899;DHT22;64576;50.460;4.866;2023-04-06T09:59:40;7.23;85.56
75899;DHT22;64576;50.460;4.866;2023-04-06T10:02:15;7.10;84.08
75899;DHT22;64576;50.460;4.866;2023-04-06T10:04:50;7.20;84.82
75899;DHT22;64576;50.460;4.866;2023-04-06T10:07:18;7.11;83.87
75899;DHT22;64576;50.460;4.866;2023-04-06T10:09:45;7.04;85.60
75899;DHT22;64576;50.460;4.866;2023-04-06T10:12:12;6.96;84.76
75899;DHT22;64576;50.460;4.866;2023-04-06T10:14:39;7.08;85.33
75899;DHT22;64576;50.460;4.866;2023-04-06T10:17:06;7.04;85.64
75899;DHT22;64576;50.460;4.866;2023-04-06T10:19:49;7.14;86.75
75899;DHT22;64576;50.460;4.866;2023-04-06T10:22:24;7.11;85.87
75899;DHT22;64576;50.460;4.866;2023-04-06T10:24:51;7.07;86.64
75899;DHT22;64576;50.460;4.866;2023-04-06T10:27:27;7.21;87.20
75899;DHT22;64576;50.460;4.866;2023-04-06T10:30:05;7.25;85.71
75899;DHT22;64576;50.460;4.866;2023-04-06T10:32:38;7.27;86.27
75899;DHT22;64576;50.460;4.866;2023-04-06T10:35:10;7.30;86.33
75899;DHT22;64576;50.460;4.866;2023-04-06T10:38:06;7.20;86.48
75899;DHT22;64576;50.460;4.866;2023-04-06T10:40:35;7.15;86.28
75899;DHT22;64576;50.460;4.866;2023-04-06T10:43:13;7.04;86.84
75899;DHT22;64576;50.460;4.866;2023-04-06T10:45:40;7.14;87.80
75899;DHT22;64576;50.460;4.866;2023-04-06T10:48:18;7.14;86.95
75899;DHT22;64576;50.460;4.866;2023-04-06T10:50:46;6.90;86.14
75899;DHT22;64576;50.460;4.866;2023-04-06T10:53:21;6.92;86.88
75899;DHT22;64576;50.460;4.866;2023-04-06T10:55:49;6.97;87.33
75899;DHT22;64576;50.460;4.866;2023-04-06T10:58:15;6.86;87.02
75899;DHT22;64576;50.460;4.866;2023-04-06T11:00:48;6.87;87.07
75899;DHT22;64576;50.460;4.866;2023-04-06T11:03:13;6.86;87.55
75899;DHT22;64576;50.460;4.866;2023-04-06T11:05:46;6.85;87.42
75899;DHT22;64576;50.460;4.866;2023-04-06T11:08:41;6.86;87.67
75899;DHT22;64576;50.460;4.866;2023-04-06T11:13:42;6.79;88.01
75899;DHT22;64576;50.460;4.866;2023-04-06T11:18:48;6.94;88.65
75899;DHT22;64576;50.460;4.866;2023-04-06T11:21:17;6.93;87.76
75899;DHT22;64576;50.460;4.866;2023-04-06T11:23:42;6.97;88.44
75899;DHT22;64576;50.460;4.866;2023-04-06T11:26:12;6.96;88.03
75899;DHT22;64576;50.460;4.866;2023-04-06T11:28:42;6.99;88.43
75899;DHT22;64576;50.460;4.866;2023-04-06T11:31:09;7.04;88.94
75899;DHT22;64576;50.460;4.866;2023-04-06T11:33:36;7.00;88.83
75899;DHT22;64576;50.460;4.866;2023-04-06T11:36:03;7.01;89.12
75899;DHT22;64576;50.460;4.866;2023-04-06T11:38:29;7.08;88.83
75899;DHT22;64576;50.460;4.866;2023-04-06T11:40:55;7.25;88.81
75899;DHT22;64576;50.460;4.866;2023-04-06T11:43:30;7.21;88.58
75899;DHT22;64576;50.460;4.866;2023-04-06T11:46:17;7.36;88.05
75899;DHT22;64576;50.460;4.866;2023-04-06T11:48:45;7.32;88.56
75899;DHT22;64576;50.460;4.866;2023-04-06T11:51:11;7.40;88.32
75899;DHT22;64576;50.460;4.866;2023-04-06T11:53:44;7.18;87.58
75899;DHT22;64576;50.460;4.866;2023-04-06T11:56:10;7.15;88.85
75899;DHT22;64576;50.460;4.866;2023-04-06T11:58:36;7.18;89.38
75899;DHT22;64576;50.460;4.866;2023-04-06T12:01:04;7.18;89.41
75899;DHT22;64576;50.460;4.866;2023-04-06T12:03:48;7.14;88.87
75899;DHT22;64576;50.460;4.866;2023-04-06T12:06:39;7.11;89.29
75899;DHT22;64576;50.460;4.866;2023-04-06T12:09:14;7.07;89.83
75899;DHT22;64576;50.460;4.866;2023-04-06T12:17:47;7.10;90.72
75899;DHT22;64576;50.460;4.866;2023-04-06T12:20:38;7.10;90.92
75899;DHT22;64576;50.460;4.866;2023-04-06T12:23:06;7.05;91.53
75899;DHT22;64576;50.460;4.866;2023-04-06T12:25:39;7.08;91.57
75899;DHT22;64576;50.460;4.866;2023-04-06T12:28:08;6.94;91.01
75899;DHT22;64576;50.460;4.866;2023-04-06T12:30:35;7.00;91.99
75899;DHT22;64576;50.460;4.866;2023-04-06T12:33:06;7.14;91.42
75899;DHT22;64576;50.460;4.866;2023-04-06T12:35:36;7.15;90.97
75899;DHT22;64576;50.460;4.866;2023-04-06T12:38:02;7.32;91.93
75899;DHT22;64576;50.460;4.866;2023-04-06T12:40:28;7.25;91.15
75899;DHT22;64576;50.460;4.866;2023-04-06T12:42:58;7.59;91.95
75899;DHT22;64576;50.460;4.866;2023-04-06T12:45:24;7.36;91.15
75899;DHT22;64576;50.460;4.866;2023-04-06T12:47:50;7.51;91.55
75899;DHT22;64576;50.460;4.866;2023-04-06T12:50:16;7.63;91.68
75899;DHT22;64576;50.460;4.866;2023-04-06T12:52:41;7.62;91.87
75899;DHT22;64576;50.460;4.866;2023-04-06T12:55:07;7.54;92.17
75899;DHT22;64576;50.460;4.866;2023-04-06T12:57:32;7.49;91.75
75899;DHT22;64576;50.460;4.866;2023-04-06T13:00:01;7.44;92.02
75899;DHT22;64576;50.460;4.866;2023-04-06T13:02:26;7.42;91.88
75899;DHT22;64576;50.460;4.866;2023-04-06T13:04:52;7.47;91.78
75899;DHT22;64576;50.460;4.866;2023-04-06T13:07:17;7.42;91.55
75899;DHT22;64576;50.460;4.866;2023-04-06T13:09:43;7.34;91.32
75899;DHT22;64576;50.460;4.866;2023-04-06T13:12:11;7.25;91.84
75899;DHT22;64576;50.460;4.866;2023-04-06T13:14:36;7.27;91.83
75899;DHT22;64576;50.460;4.866;2023-04-06T13:17:02;7.25;91.86
75899;DHT22;64576;50.460;4.866;2023-04-06T13:19:27;7.27;92.00
75899;DHT22;64576;50.460;4.866;2023-04-06T13:21:56;7.21;91.99
75899;DHT22;64576;50.460;4.866;2023-04-06T13:24:21;7.28;91.86
75899;DHT22;64576;50.460;4.866;2023-04-06T13:26:48;7.36;91.72
75899;DHT22;64576;50.460;4.866;2023-04-06T13:29:13;7.41;91.57
75899;DHT22;64576;50.460;4.866;2023-04-06T13:31:39;7.45;91.26
75899;DHT22;64576;50.460;4.866;2023-04-06T13:34:04;7.40;91.45
75899;DHT22;64576;50.460;4.866;2023-04-06T13:36:30;7.38;91.68
75899;DHT22;64576;50.460;4.866;2023-04-06T13:38:57;7.45;91.86
75899;DHT22;64576;50.460;4.866;2023-04-06T13:41:24;7.38;91.66
75899;DHT22;64576;50.460;4.866;2023-04-06T13:43:50;7.35;92.08
75899;DHT22;64576;50.460;4.866;2023-04-06T13:46:15;7.56;92.46
75899;DHT22;64576;50.460;4.866;2023-04-06T13:48:42;7.63;91.71
75899;DHT22;64576;50.460;4.866;2023-04-06T13:51:11;7.63;91.44
75899;DHT22;64576;50.460;4.866;2023-04-06T13:53:37;7.55;91.38
75899;DHT22;64576;50.460;4.866;2023-04-06T13:56:03;7.48;91.63
75899;DHT22;64576;50.460;4.866;2023-04-06T13:58:28;7.51;92.01
75899;DHT22;64576;50.460;4.866;2023-04-06T14:03:30;7.40;92.12
75899;DHT22;64576;50.460;4.866;2023-04-06T14:05:56;7.40;92.26
75899;DHT22;64576;50.460;4.866;2023-04-06T14:08:21;7.44;92.48
75899;DHT22;64576;50.460;4.866;2023-04-06T14:10:49;7.40;92.28
75899;DHT22;64576;50.460;4.866;2023-04-06T14:13:15;7.41;92.65
75899;DHT22;64576;50.460;4.866;2023-04-06T14:15:40;7.40;92.34
75899;DHT22;64576;50.460;4.866;2023-04-06T14:18:07;7.42;93.20
75899;DHT22;64576;50.460;4.866;2023-04-06T14:20:33;7.42;93.03
75899;DHT22;64576;50.460;4.866;2023-04-06T14:23:04;7.36;93.73
75899;DHT22;64576;50.460;4.866;2023-04-06T14:25:30;7.31;93.95
75899;DHT22;64576;50.460;4.866;2023-04-06T14:27:57;7.28;94.39
75899;DHT22;64576;50.460;4.866;2023-04-06T14:30:27;7.23;94.74
75899;DHT22;64576;50.460;4.866;2023-04-06T14:40:02;7.27;96.26
75899;DHT22;64576;50.460;4.866;2023-04-06T14:42:30;7.27;96.25
75899;DHT22;64576;50.460;4.866;2023-04-06T14:44:58;7.24;96.43
75899;DHT22;64576;50.460;4.866;2023-04-06T14:47:24;7.25;96.49
75899;DHT22;64576;50.460;4.866;2023-04-06T14:49:51;7.32;96.94
75899;DHT22;64576;50.460;4.866;2023-04-06T14:52:17;7.34;96.64
75899;DHT22;64576;50.460;4.866;2023-04-06T14:54:43;7.38;96.75
75899;DHT22;64576;50.460;4.866;2023-04-06T14:57:09;7.42;96.93
75899;DHT22;64576;50.460;4.866;2023-04-06T14:59:34;7.45;96.04
75899;DHT22;64576;50.460;4.866;2023-04-06T15:02:01;7.54;96.13
75899;DHT22;64576;50.460;4.866;2023-04-06T15:04:28;7.65;96.37
75899;DHT22;64576;50.460;4.866;2023-04-06T15:06:53;7.72;95.55
75899;DHT22;64576;50.460;4.866;2023-04-06T15:09:19;7.82;95.08
75899;DHT22;64576;50.460;4.866;2023-04-06T15:11:44;7.82;94.18
75899;DHT22;64576;50.460;4.866;2023-04-06T15:14:12;7.90;94.51
75899;DHT22;64576;50.460;4.866;2023-04-06T15:16:37;7.97;94.30
75899;DHT22;64576;50.460;4.866;2023-04-06T15:19:06;8.13;94.27
75899;DHT22;64576;50.460;4.866;2023-04-06T15:21:32;8.10;94.10
75899;DHT22;64576;50.460;4.866;2023-04-06T15:23:57;8.06;94.27
75899;DHT22;64576;50.460;4.866;2023-04-06T15:26:28;8.11;94.69
75899;DHT22;64576;50.460;4.866;2023-04-06T15:28:54;8.16;94.48
75899;DHT22;64576;50.460;4.866;2023-04-06T15:31:20;8.31;94.47
75899;DHT22;64576;50.460;4.866;2023-04-06T15:33:46;8.42;94.16
75899;DHT22;64576;50.460;4.866;2023-04-06T15:36:26;8.76;93.62
75899;DHT22;64576;50.460;4.866;2023-04-06T15:38:54;8.68;92.97
75899;DHT22;64576;50.460;4.866;2023-04-06T15:41:19;8.79;92.77
75899;DHT22;64576;50.460;4.866;2023-04-06T15:43:49;8.69;92.09
75899;DHT22;64576;50.460;4.866;2023-04-06T15:46:16;8.75;91.96
75899;DHT22;64576;50.460;4.866;2023-04-06T15:48:41;8.66;91.96
75899;DHT22;64576;50.460;4.866;2023-04-06T15:51:07;8.73;92.00
75899;DHT22;64576;50.460;4.866;2023-04-06T15:53:32;8.59;92.63
75899;DHT22;64576;50.460;4.866;2023-04-06T15:56:02;8.52;93.02
75899;DHT22;64576;50.460;4.866;2023-04-06T15:58:29;8.35;92.94
75899;DHT22;64576;50.460;4.866;2023-04-06T16:00:58;8.30;93.10
75899;DHT22;64576;50.460;4.866;2023-04-06T16:03:24;8.27;93.52
75899;DHT22;64576;50.460;4.866;2023-04-06T16:05:53;8.45;93.67